sensor_id;sensor_type;location;lat;lon;timestamp;P1;durP1;ratioP1;P2;durP2;ratioP2
54307;SDS011;40208;39.778;2.710;2023-03-23T00:01:36;7.20;;;2.50;;
54307;SDS011;40208;39.778;2.710;2023-03-23T00:04:21;5.90;;;2.45;;
54307;SDS011;40208;39.778;2.710;2023-03-23T00:07:10;5.55;;;2.63;;
54307;SDS011;40208;39.778;2.710;2023-03-23T00:09:56;5.57;;;2.50;;
54307;SDS011;40208;39.778;2.710;2023-03-23T00:12:41;4.68;;;1.85;;
54307;SDS011;40208;39.778;2.710;2023-03-23T00:15:26;7.70;;;3.47;;
54307;SDS011;40208;39.778;2.710;2023-03-23T00:18:11;9.63;;;4.68;;
54307;SDS011;40208;39.778;2.710;2023-03-23T00:21:06;9.18;;;3.67;;
54307;SDS011;40208;39.778;2.710;2023-03-23T00:23:51;14.82;;;4.68;;
54307;SDS011;40208;39.778;2.710;2023-03-23T00:26:37;9.85;;;4.63;;
54307;SDS011;40208;39.778;2.710;2023-03-23T00:29:24;7.43;;;3.60;;
54307;SDS011;40208;39.778;2.710;2023-03-23T00:32:10;8.55;;;3.58;;
54307;SDS011;40208;39.778;2.710;2023-03-23T00:34:58;6.18;;;2.67;;
54307;SDS011;40208;39.778;2.710;2023-03-23T00:37:43;7.15;;;2.47;;
54307;SDS011;40208;39.778;2.710;2023-03-23T00:40:28;4.03;;;1.15;;
54307;SDS011;40208;39.778;2.710;2023-03-23T00:43:14;4.10;;;1.42;;
54307;SDS011;40208;39.778;2.710;2023-03-23T00:46:00;2.22;;;0.90;;
54307;SDS011;40208;39.778;2.710;2023-03-23T00:48:45;2.08;;;1.13;;
54307;SDS011;40208;39.778;2.710;2023-03-23T00:51:31;3.50;;;1.25;;
54307;SDS011;40208;39.778;2.710;2023-03-23T00:54:16;3.97;;;1.70;;
54307;SDS011;40208;39.778;2.710;2023-03-23T00:57:01;2.67;;;1.40;;
54307;SDS011;40208;39.778;2.710;2023-03-23T00:59:47;5.00;;;1.95;;
54307;SDS011;40208;39.778;2.710;2023-03-23T01:02:32;3.13;;;1.58;;
54307;SDS011;40208;39.778;2.710;2023-03-23T01:05:17;4.68;;;1.60;;
54307;SDS011;40208;39.778;2.710;2023-03-23T01:08:03;5.63;;;1.33;;
54307;SDS011;40208;39.778;2.710;2023-03-23T01:10:50;2.13;;;1.20;;
54307;SDS011;40208;39.778;2.710;2023-03-23T01:13:34;2.40;;;1.30;;
54307;SDS011;40208;39.778;2.710;2023-03-23T01:16:21;3.63;;;1.70;;
54307;SDS011;40208;39.778;2.710;2023-03-23T01:19:06;4.00;;;1.67;;
54307;SDS011;40208;39.778;2.710;2023-03-23T01:21:51;4.70;;;1.85;;
54307;SDS011;40208;39.778;2.710;2023-03-23T01:24:36;4.57;;;1.70;;
54307;SDS011;40208;39.778;2.710;2023-03-23T01:27:22;3.90;;;1.40;;
54307;SDS011;40208;39.778;2.710;2023-03-23T01:30:08;1.23;;;0.77;;
54307;SDS011;40208;39.778;2.710;2023-03-23T01:32:56;2.95;;;0.95;;
54307;SDS011;40208;39.778;2.710;2023-03-23T01:35:41;2.63;;;0.90;;
54307;SDS011;40208;39.778;2.710;2023-03-23T01:38:26;6.53;;;1.45;;
54307;SDS011;40208;39.778;2.710;2023-03-23T01:41:11;3.67;;;1.35;;
54307;SDS011;40208;39.778;2.710;2023-03-23T01:46:48;2.55;;;1.23;;
54307;SDS011;40208;39.778;2.710;2023-03-23T01:49:35;4.15;;;1.33;;
54307;SDS011;40208;39.778;2.710;2023-03-23T01:52:23;4.00;;;1.70;;
54307;SDS011;40208;39.778;2.710;2023-03-23T01:55:11;4.20;;;2.00;;
54307;SDS011;40208;39.778;2.710;2023-03-23T01:57:56;4.85;;;1.60;;
54307;SDS011;40208;39.778;2.710;2023-03-23T02:00:42;2.42;;;1.48;;
54307;SDS011;40208;39.778;2.710;2023-03-23T02:03:27;3.88;;;1.77;;
54307;SDS011;40208;39.778;2.710;2023-03-23T02:06:15;3.60;;;1.20;;
54307;SDS011;40208;39.778;2.710;2023-03-23T02:09:00;5.03;;;1.65;;
54307;SDS011;40208;39.778;2.710;2023-03-23T02:11:45;2.58;;;1.40;;
54307;SDS011;40208;39.778;2.710;2023-03-23T02:14:32;2.83;;;1.42;;
54307;SDS011;40208;39.778;2.710;2023-03-23T02:35:39;1.38;;;1.13;;
54307;SDS011;40208;39.778;2.710;2023-03-23T02:41:39;1.92;;;1.10;;
54307;SDS011;40208;39.778;2.710;2023-03-23T02:44:28;2.97;;;1.17;;
54307;SDS011;40208;39.778;2.710;2023-03-23T02:47:19;4.05;;;1.63;;
54307;SDS011;40208;39.778;2.710;2023-03-23T02:50:08;2.25;;;1.05;;
54307;SDS011;40208;39.778;2.710;2023-03-23T02:52:58;2.17;;;1.10;;
54307;SDS011;40208;39.778;2.710;2023-03-23T02:55:44;3.45;;;1.20;;
54307;SDS011;40208;39.778;2.710;2023-03-23T02:58:30;4.95;;;1.50;;
54307;SDS011;40208;39.778;2.710;2023-03-23T03:04:22;3.78;;;1.90;;
54307;SDS011;40208;39.778;2.710;2023-03-23T03:07:13;4.78;;;1.65;;
54307;SDS011;40208;39.778;2.710;2023-03-23T03:10:08;4.30;;;1.95;;
54307;SDS011;40208;39.778;2.710;2023-03-23T03:21:56;3.70;;;1.50;;
54307;SDS011;40208;39.778;2.710;2023-03-23T03:24:43;3.70;;;1.60;;
54307;SDS011;40208;39.778;2.710;2023-03-23T03:27:28;4.30;;;1.23;;
54307;SDS011;40208;39.778;2.710;2023-03-23T03:30:17;5.22;;;1.52;;
54307;SDS011;40208;39.778;2.710;2023-03-23T03:33:08;2.30;;;1.25;;
54307;SDS011;40208;39.778;2.710;2023-03-23T03:35:53;2.08;;;1.08;;
54307;SDS011;40208;39.778;2.710;2023-03-23T03:38:46;2.30;;;1.40;;
54307;SDS011;40208;39.778;2.710;2023-03-23T03:41:33;1.95;;;1.33;;
54307;SDS011;40208;39.778;2.710;2023-03-23T03:44:20;1.70;;;1.20;;
54307;SDS011;40208;39.778;2.710;2023-03-23T03:47:05;1.50;;;1.33;;
54307;SDS011;40208;39.778;2.710;2023-03-23T03:49:50;3.05;;;1.02;;
54307;SDS011;40208;39.778;2.710;2023-03-23T03:52:36;3.67;;;1.27;;
54307;SDS011;40208;39.778;2.710;2023-03-23T03:55:22;1.75;;;0.90;;
54307;SDS011;40208;39.778;2.710;2023-03-23T03:58:07;4.85;;;1.45;;
54307;SDS011;40208;39.778;2.710;2023-03-23T04:00:52;2.47;;;1.00;;
54307;SDS011;40208;39.778;2.710;2023-03-23T04:03:37;3.22;;;1.20;;
54307;SDS011;40208;39.778;2.710;2023-03-23T04:06:23;1.58;;;0.90;;
54307;SDS011;40208;39.778;2.710;2023-03-23T04:09:09;3.05;;;1.55;;
54307;SDS011;40208;39.778;2.710;2023-03-23T04:11:55;1.25;;;0.93;;
54307;SDS011;40208;39.778;2.710;2023-03-23T04:14:40;3.63;;;0.93;;
54307;SDS011;40208;39.778;2.710;2023-03-23T04:17:24;1.70;;;1.00;;
54307;SDS011;40208;39.778;2.710;2023-03-23T04:20:12;1.35;;;0.85;;
54307;SDS011;40208;39.778;2.710;2023-03-23T04:23:01;1.33;;;0.90;;
54307;SDS011;40208;39.778;2.710;2023-03-23T04:25:47;6.40;;;1.40;;
54307;SDS011;40208;39.778;2.710;2023-03-23T04:28:33;3.53;;;1.15;;
54307;SDS011;40208;39.778;2.710;2023-03-23T04:31:19;1.73;;;0.98;;
54307;SDS011;40208;39.778;2.710;2023-03-23T04:34:04;5.10;;;1.65;;
54307;SDS011;40208;39.778;2.710;2023-03-23T04:36:49;2.72;;;1.33;;
54307;SDS011;40208;39.778;2.710;2023-03-23T04:39:35;5.05;;;1.20;;
54307;SDS011;40208;39.778;2.710;2023-03-23T04:42:20;4.28;;;1.50;;
54307;SDS011;40208;39.778;2.710;2023-03-23T04:45:06;3.97;;;1.45;;
54307;SDS011;40208;39.778;2.710;2023-03-23T04:47:52;3.92;;;1.15;;
54307;SDS011;40208;39.778;2.710;2023-03-23T04:50:37;2.67;;;1.20;;
54307;SDS011;40208;39.778;2.710;2023-03-23T04:53:22;3.55;;;1.00;;
54307;SDS011;40208;39.778;2.710;2023-03-23T04:56:07;2.58;;;1.25;;
54307;SDS011;40208;39.778;2.710;2023-03-23T04:58:52;0.98;;;0.88;;
54307;SDS011;40208;39.778;2.710;2023-03-23T05:01:38;1.38;;;1.00;;
54307;SDS011;40208;39.778;2.710;2023-03-23T05:04:24;2.55;;;0.77;;
54307;SDS011;40208;39.778;2.710;2023-03-23T05:07:10;2.42;;;1.40;;
54307;SDS011;40208;39.778;2.710;2023-03-23T05:09:55;2.92;;;1.30;;
54307;SDS011;40208;39.778;2.710;2023-03-23T05:12:40;2.88;;;0.90;;
54307;SDS011;40208;39.778;2.710;2023-03-23T05:15:26;4.25;;;1.58;;
54307;SDS011;40208;39.778;2.710;2023-03-23T05:18:11;1.92;;;1.05;;
54307;SDS011;40208;39.778;2.710;2023-03-23T05:20:59;4.68;;;1.80;;
54307;SDS011;40208;39.778;2.710;2023-03-23T05:23:44;2.05;;;1.10;;
54307;SDS011;40208;39.778;2.710;2023-03-23T05:26:29;4.03;;;1.15;;
54307;SDS011;40208;39.778;2.710;2023-03-23T05:29:14;3.00;;;0.70;;
54307;SDS011;40208;39.778;2.710;2023-03-23T05:31:59;4.18;;;1.30;;
54307;SDS011;40208;39.778;2.710;2023-03-23T05:34:44;2.58;;;1.10;;
54307;SDS011;40208;39.778;2.710;2023-03-23T05:37:30;3.95;;;1.67;;
54307;SDS011;40208;39.778;2.710;2023-03-23T05:40:17;5.68;;;2.08;;
54307;SDS011;40208;39.778;2.710;2023-03-23T05:43:02;4.32;;;2.10;;
54307;SDS011;40208;39.778;2.710;2023-03-23T05:45:47;4.90;;;2.00;;
54307;SDS011;40208;39.778;2.710;2023-03-23T05:48:32;4.13;;;1.65;;
54307;SDS011;40208;39.778;2.710;2023-03-23T05:51:17;4.55;;;1.80;;
54307;SDS011;40208;39.778;2.710;2023-03-23T05:54:03;3.28;;;1.52;;
54307;SDS011;40208;39.778;2.710;2023-03-23T05:56:54;4.97;;;1.35;;
54307;SDS011;40208;39.778;2.710;2023-03-23T05:59:48;3.03;;;1.60;;
54307;SDS011;40208;39.778;2.710;2023-03-23T06:02:33;5.93;;;1.40;;
54307;SDS011;40208;39.778;2.710;2023-03-23T06:05:18;6.47;;;1.40;;
54307;SDS011;40208;39.778;2.710;2023-03-23T06:08:03;3.08;;;1.17;;
54307;SDS011;40208;39.778;2.710;2023-03-23T06:10:48;5.72;;;1.50;;
54307;SDS011;40208;39.778;2.710;2023-03-23T06:13:36;4.93;;;1.40;;
54307;SDS011;40208;39.778;2.710;2023-03-23T06:16:22;2.22;;;1.02;;
54307;SDS011;40208;39.778;2.710;2023-03-23T06:19:07;8.70;;;1.45;;
54307;SDS011;40208;39.778;2.710;2023-03-23T06:21:53;2.33;;;1.17;;
54307;SDS011;40208;39.778;2.710;2023-03-23T06:24:40;2.45;;;1.15;;
54307;SDS011;40208;39.778;2.710;2023-03-23T06:27:25;4.00;;;1.42;;
54307;SDS011;40208;39.778;2.710;2023-03-23T06:30:11;7.55;;;1.20;;
54307;SDS011;40208;39.778;2.710;2023-03-23T06:32:59;2.22;;;1.30;;
54307;SDS011;40208;39.778;2.710;2023-03-23T06:35:44;3.13;;;1.20;;
54307;SDS011;40208;39.778;2.710;2023-03-23T06:38:30;4.13;;;1.63;;
54307;SDS011;40208;39.778;2.710;2023-03-23T06:41:15;4.15;;;1.55;;
54307;SDS011;40208;39.778;2.710;2023-03-23T06:44:00;3.47;;;1.92;;
54307;SDS011;40208;39.778;2.710;2023-03-23T06:46:45;5.88;;;1.40;;
54307;SDS011;40208;39.778;2.710;2023-03-23T06:49:33;3.42;;;1.52;;
54307;SDS011;40208;39.778;2.710;2023-03-23T06:52:18;5.38;;;1.92;;
54307;SDS011;40208;39.778;2.710;2023-03-23T06:55:03;8.93;;;1.58;;
54307;SDS011;40208;39.778;2.710;2023-03-23T06:57:49;5.85;;;2.20;;
54307;SDS011;40208;39.778;2.710;2023-03-23T07:00:34;6.70;;;1.50;;
54307;SDS011;40208;39.778;2.710;2023-03-23T07:03:18;9.20;;;1.63;;
54307;SDS011;40208;39.778;2.710;2023-03-23T07:06:03;11.05;;;1.90;;
54307;SDS011;40208;39.778;2.710;2023-03-23T07:08:48;3.33;;;1.75;;
54307;SDS011;40208;39.778;2.710;2023-03-23T07:11:33;5.25;;;1.83;;
54307;SDS011;40208;39.778;2.710;2023-03-23T07:14:19;9.35;;;2.03;;
54307;SDS011;40208;39.778;2.710;2023-03-23T07:17:04;13.45;;;2.45;;
54307;SDS011;40208;39.778;2.710;2023-03-23T07:19:49;6.45;;;2.08;;
54307;SDS011;40208;39.778;2.710;2023-03-23T07:22:35;3.90;;;2.05;;
54307;SDS011;40208;39.778;2.710;2023-03-23T07:25:20;12.40;;;2.20;;
54307;SDS011;40208;39.778;2.710;2023-03-23T07:28:05;10.63;;;2.55;;
54307;SDS011;40208;39.778;2.710;2023-03-23T07:30:50;7.53;;;2.20;;
54307;SDS011;40208;39.778;2.710;2023-03-23T07:33:35;6.97;;;2.65;;
54307;SDS011;40208;39.778;2.710;2023-03-23T07:36:22;9.52;;;2.20;;
54307;SDS011;40208;39.778;2.710;2023-03-23T07:39:07;6.88;;;2.38;;
54307;SDS011;40208;39.778;2.710;2023-03-23T07:41:52;4.93;;;2.25;;
54307;SDS011;40208;39.778;2.710;2023-03-23T07:44:37;5.50;;;1.95;;
54307;SDS011;40208;39.778;2.710;2023-03-23T07:47:22;5.43;;;1.63;;
54307;SDS011;40208;39.778;2.710;2023-03-23T07:50:07;3.22;;;1.95;;
54307;SDS011;40208;39.778;2.710;2023-03-23T07:52:54;6.70;;;1.90;;
54307;SDS011;40208;39.778;2.710;2023-03-23T07:55:41;3.88;;;2.00;;
54307;SDS011;40208;39.778;2.710;2023-03-23T07:58:25;4.78;;;1.58;;
54307;SDS011;40208;39.778;2.710;2023-03-23T08:01:12;7.85;;;1.95;;
54307;SDS011;40208;39.778;2.710;2023-03-23T08:03:58;2.97;;;1.70;;
54307;SDS011;40208;39.778;2.710;2023-03-23T08:06:44;5.95;;;2.08;;
54307;SDS011;40208;39.778;2.710;2023-03-23T08:09:29;3.65;;;1.63;;
54307;SDS011;40208;39.778;2.710;2023-03-23T08:12:15;7.32;;;2.20;;
54307;SDS011;40208;39.778;2.710;2023-03-23T08:15:01;7.63;;;3.35;;
54307;SDS011;40208;39.778;2.710;2023-03-23T08:17:46;10.27;;;3.50;;
54307;SDS011;40208;39.778;2.710;2023-03-23T08:20:32;15.50;;;6.88;;
54307;SDS011;40208;39.778;2.710;2023-03-23T08:23:17;12.65;;;6.22;;
54307;SDS011;40208;39.778;2.710;2023-03-23T08:26:02;23.33;;;9.07;;
54307;SDS011;40208;39.778;2.710;2023-03-23T08:28:50;16.48;;;7.05;;
54307;SDS011;40208;39.778;2.710;2023-03-23T08:31:35;16.80;;;6.35;;
54307;SDS011;40208;39.778;2.710;2023-03-23T08:34:21;23.58;;;9.18;;
54307;SDS011;40208;39.778;2.710;2023-03-23T08:37:06;20.75;;;7.53;;
54307;SDS011;40208;39.778;2.710;2023-03-23T08:39:53;23.58;;;7.43;;
54307;SDS011;40208;39.778;2.710;2023-03-23T08:42:42;23.60;;;7.38;;
54307;SDS011;40208;39.778;2.710;2023-03-23T08:45:28;82.65;;;34.97;;
54307;SDS011;40208;39.778;2.710;2023-03-23T08:48:12;80.18;;;31.25;;
54307;SDS011;40208;39.778;2.710;2023-03-23T08:50:57;24.98;;;11.20;;
54307;SDS011;40208;39.778;2.710;2023-03-23T08:53:43;26.38;;;9.77;;
54307;SDS011;40208;39.778;2.710;2023-03-23T08:56:28;19.17;;;7.90;;
54307;SDS011;40208;39.778;2.710;2023-03-23T08:59:12;12.02;;;4.45;;
54307;SDS011;40208;39.778;2.710;2023-03-23T09:01:57;34.72;;;11.73;;
54307;SDS011;40208;39.778;2.710;2023-03-23T09:04:42;29.15;;;11.68;;
54307;SDS011;40208;39.778;2.710;2023-03-23T09:07:27;22.75;;;7.53;;
54307;SDS011;40208;39.778;2.710;2023-03-23T09:10:12;25.50;;;9.40;;
54307;SDS011;40208;39.778;2.710;2023-03-23T09:12:58;29.13;;;10.20;;
54307;SDS011;40208;39.778;2.710;2023-03-23T09:15:43;25.60;;;7.95;;
54307;SDS011;40208;39.778;2.710;2023-03-23T09:18:28;13.95;;;5.80;;
54307;SDS011;40208;39.778;2.710;2023-03-23T09:21:13;29.77;;;10.70;;
54307;SDS011;40208;39.778;2.710;2023-03-23T09:23:58;29.73;;;10.30;;
54307;SDS011;40208;39.778;2.710;2023-03-23T09:26:43;19.35;;;7.88;;
54307;SDS011;40208;39.778;2.710;2023-03-23T09:29:28;23.80;;;7.80;;
54307;SDS011;40208;39.778;2.710;2023-03-23T09:32:14;11.70;;;3.67;;
54307;SDS011;40208;39.778;2.710;2023-03-23T09:34:59;41.50;;;12.48;;
54307;SDS011;40208;39.778;2.710;2023-03-23T09:37:45;28.17;;;10.15;;
54307;SDS011;40208;39.778;2.710;2023-03-23T09:49:29;19.02;;;6.93;;
54307;SDS011;40208;39.778;2.710;2023-03-23T09:52:16;21.27;;;6.85;;
54307;SDS011;40208;39.778;2.710;2023-03-23T09:55:03;15.45;;;4.00;;
54307;SDS011;40208;39.778;2.710;2023-03-23T10:03:52;19.40;;;6.45;;
54307;SDS011;40208;39.778;2.710;2023-03-23T10:06:46;10.35;;;4.15;;
54307;SDS011;40208;39.778;2.710;2023-03-23T10:09:31;18.20;;;5.25;;
54307;SDS011;40208;39.778;2.710;2023-03-23T10:12:19;19.95;;;5.90;;
54307;SDS011;40208;39.778;2.710;2023-03-23T10:15:14;11.18;;;4.25;;
54307;SDS011;40208;39.778;2.710;2023-03-23T10:18:01;11.45;;;3.97;;
54307;SDS011;40208;39.778;2.710;2023-03-23T10:20:58;15.80;;;4.53;;
54307;SDS011;40208;39.778;2.710;2023-03-23T10:32:43;8.65;;;2.63;;
54307;SDS011;40208;39.778;2.710;2023-03-23T10:35:44;6.78;;;2.60;;
54307;SDS011;40208;39.778;2.710;2023-03-23T10:38:42;9.70;;;2.13;;
54307;SDS011;40208;39.778;2.710;2023-03-23T10:41:29;2.72;;;1.00;;
54307;SDS011;40208;39.778;2.710;2023-03-23T10:44:16;2.97;;;1.25;;
54307;SDS011;40208;39.778;2.710;2023-03-23T10:47:07;3.33;;;1.52;;
54307;SDS011;40208;39.778;2.710;2023-03-23T10:52:41;5.20;;;1.65;;
54307;SDS011;40208;39.778;2.710;2023-03-23T10:55:36;6.30;;;1.58;;
54307;SDS011;40208;39.778;2.710;2023-03-23T10:58:24;2.25;;;1.08;;
54307;SDS011;40208;39.778;2.710;2023-03-23T11:01:13;12.02;;;1.55;;
54307;SDS011;40208;39.778;2.710;2023-03-23T11:03:59;4.78;;;1.48;;
54307;SDS011;40208;39.778;2.710;2023-03-23T11:06:46;3.70;;;1.63;;
54307;SDS011;40208;39.778;2.710;2023-03-23T11:09:39;4.50;;;1.40;;
54307;SDS011;40208;39.778;2.710;2023-03-23T11:12:35;4.07;;;1.48;;
54307;SDS011;40208;39.778;2.710;2023-03-23T11:18:21;3.75;;;1.20;;
54307;SDS011;40208;39.778;2.710;2023-03-23T11:21:27;4.45;;;1.20;;
54307;SDS011;40208;39.778;2.710;2023-03-23T11:24:25;3.60;;;1.52;;
54307;SDS011;40208;39.778;2.710;2023-03-23T11:27:13;2.15;;;1.30;;
54307;SDS011;40208;39.778;2.710;2023-03-23T11:30:00;3.80;;;1.58;;
54307;SDS011;40208;39.778;2.710;2023-03-23T11:32:54;4.18;;;1.33;;
54307;SDS011;40208;39.778;2.710;2023-03-23T11:35:43;7.40;;;2.30;;
54307;SDS011;40208;39.778;2.710;2023-03-23T11:38:28;9.85;;;2.95;;
54307;SDS011;40208;39.778;2.710;2023-03-23T11:41:18;7.63;;;1.85;;
54307;SDS011;40208;39.778;2.710;2023-03-23T11:44:10;4.50;;;1.40;;
54307;SDS011;40208;39.778;2.710;2023-03-23T11:46:59;7.47;;;1.65;;
54307;SDS011;40208;39.778;2.710;2023-03-23T11:49:57;12.60;;;2.10;;
54307;SDS011;40208;39.778;2.710;2023-03-23T11:58:59;5.70;;;1.40;;
54307;SDS011;40208;39.778;2.710;2023-03-23T12:01:50;8.02;;;1.35;;
54307;SDS011;40208;39.778;2.710;2023-03-23T12:04:42;6.45;;;1.20;;
54307;SDS011;40208;39.778;2.710;2023-03-23T12:35:14;2.92;;;1.10;;
54307;SDS011;40208;39.778;2.710;2023-03-23T12:41:16;5.43;;;1.55;;
54307;SDS011;40208;39.778;2.710;2023-03-23T12:44:21;2.80;;;1.02;;
54307;SDS011;40208;39.778;2.710;2023-03-23T12:53:22;4.45;;;1.10;;
54307;SDS011;40208;39.778;2.710;2023-03-23T12:59:31;1.13;;;0.60;;
54307;SDS011;40208;39.778;2.710;2023-03-23T13:02:36;2.28;;;0.90;;
54307;SDS011;40208;39.778;2.710;2023-03-23T13:05:32;2.47;;;0.63;;
54307;SDS011;40208;39.778;2.710;2023-03-23T13:08:31;3.50;;;0.65;;
54307;SDS011;40208;39.778;2.710;2023-03-23T13:11:22;6.93;;;1.10;;
54307;SDS011;40208;39.778;2.710;2023-03-23T13:17:38;6.13;;;0.85;;
54307;SDS011;40208;39.778;2.710;2023-03-23T13:20:34;4.00;;;0.82;;
54307;SDS011;40208;39.778;2.710;2023-03-23T13:23:41;5.40;;;1.00;;
54307;SDS011;40208;39.778;2.710;2023-03-23T13:26:37;1.83;;;0.70;;
54307;SDS011;40208;39.778;2.710;2023-03-23T13:29:24;3.65;;;0.90;;
54307;SDS011;40208;39.778;2.710;2023-03-23T13:32:12;4.20;;;1.02;;
54307;SDS011;40208;39.778;2.710;2023-03-23T13:37:56;2.28;;;0.70;;
54307;SDS011;40208;39.778;2.710;2023-03-23T13:40:42;2.83;;;0.50;;
54307;SDS011;40208;39.778;2.710;2023-03-23T13:43:32;2.30;;;0.40;;
